Time;durP1;ratioP1;P1;durP2;ratioP2;P2;SDS_P1;SDS_P2;PMS_P1;PMS_P2;Temp;Humidity;BMP_temperature;BMP_pressure;BME280_temperature;BME280_humidity;BME280_pressure;Samples;Min_cycle;Max_cycle;Signal;HPM_P1;HPM_P2
2023/09/28 00:00:58;;;;;;;6.30;5.65;;;17.80;99.90;;;;;;5041698;28;20039;-90
2023/09/28 00:03:24;;;;;;;7.38;5.05;;;17.80;99.90;;;;;;5064157;28;20488;-91
2023/09/28 00:05:51;;;;;;;6.32;5.07;;;17.70;99.90;;;;;;5064425;28;20125;-92
2023/09/28 00:08:17;;;;;;;6.05;5.25;;;17.70;99.90;;;;;;5041238;28;20122;-92
2023/09/28 00:10:42;;;;;;;5.57;5.05;;;17.70;99.90;;;;;;5074876;28;20495;-93
2023/09/28 00:13:09;;;;;;;6.68;4.70;;;17.70;99.90;;;;;;5044886;28;20067;-91
2023/09/28 00:15:34;;;;;;;8.05;4.80;;;17.70;99.90;;;;;;5037299;28;20048;-91
2023/09/28 00:18:01;;;;;;;4.93;4.25;;;17.70;99.90;;;;;;5041770;28;20098;-93
2023/09/28 00:20:28;;;;;;;4.75;4.35;;;17.70;99.90;;;;;;5051853;28;20055;-92
2023/09/28 00:22:56;;;;;;;5.55;5.05;;;17.70;99.90;;;;;;5057693;28;20047;-92
2023/09/28 00:25:23;;;;;;;5.43;4.63;;;17.70;99.90;;;;;;5055834;28;20036;-92
2023/09/28 00:27:53;;;;;;;5.65;4.63;;;17.70;99.90;;;;;;5076719;28;20040;-92
2023/09/28 00:30:22;;;;;;;5.63;4.88;;;17.70;99.90;;;;;;5040559;28;20064;-92
2023/09/28 00:32:52;;;;;;;5.43;4.68;;;17.70;99.90;;;;;;5035312;28;20058;-90
2023/09/28 00:35:19;;;;;;;4.82;4.32;;;17.70;99.90;;;;;;5061049;28;20086;-93
2023/09/28 00:37:46;;;;;;;5.22;4.15;;;17.70;99.90;;;;;;5061859;28;20093;-94
2023/09/28 00:40:31;;;;;;;7.13;4.30;;;17.70;99.90;;;;;;5112744;28;20154;-91
2023/09/28 00:42:58;;;;;;;5.88;4.10;;;17.70;99.90;;;;;;5076462;28;20048;-94
2023/09/28 00:45:25;;;;;;;4.88;4.38;;;17.70;99.90;;;;;;5061459;28;20123;-93
2023/09/28 00:47:53;;;;;;;5.55;4.60;;;17.80;99.90;;;;;;5071110;28;20040;-89
2023/09/28 00:50:20;;;;;;;7.00;4.38;;;17.70;99.90;;;;;;5061334;28;20364;-90
2023/09/28 00:53:06;;;;;;;;;;;17.70;99.90;;;;;;5066377;28;21503;-93
2023/09/28 00:55:33;;;;;;;4.82;4.35;;;17.70;99.90;;;;;;5083726;28;19920;-92
2023/09/28 00:58:05;;;;;;;5.88;4.40;;;17.70;99.90;;;;;;5061304;28;20044;-89
2023/09/28 01:00:34;;;;;;;6.15;4.40;;;17.70;99.90;;;;;;5078031;28;20483;-92
2023/09/28 01:03:06;;;;;;;4.65;4.10;;;17.70;99.90;;;;;;5044549;28;20094;-92
2023/09/28 01:05:40;;;;;;;5.25;4.75;;;17.70;99.90;;;;;;5078835;28;20105;-94
2023/09/28 01:08:18;;;;;;;7.70;5.30;;;17.70;99.90;;;;;;5062475;28;20628;-94
2023/09/28 01:10:45;;;;;;;4.93;4.35;;;17.80;99.90;;;;;;5080699;28;20550;-92
2023/09/28 01:13:12;;;;;;;5.32;4.28;;;17.70;99.90;;;;;;5075888;28;20044;-92
2023/09/28 01:15:49;;;;;;;4.70;4.20;;;17.70;99.90;;;;;;5072822;28;20123;-90
2023/09/28 01:18:18;;;;;;;7.00;5.13;;;17.70;99.90;;;;;;5088769;28;20043;-94
2023/09/28 01:20:46;;;;;;;4.53;4.10;;;17.70;99.90;;;;;;5060299;28;20067;-90
2023/09/28 01:23:11;;;;;;;5.45;4.28;;;17.70;99.90;;;;;;5064839;28;20035;-90
2023/09/28 01:25:38;;;;;;;5.25;4.30;;;17.70;99.90;;;;;;5047042;28;20036;-92
2023/09/28 01:28:05;;;;;;;5.43;4.38;;;17.70;99.90;;;;;;5043683;28;20079;-90
2023/09/28 01:30:31;;;;;;;4.43;4.03;;;17.70;99.90;;;;;;5044217;28;20041;-90
2023/09/28 01:32:57;;;;;;;4.30;3.88;;;17.70;99.90;;;;;;5049777;28;20047;-91
2023/09/28 01:35:23;;;;;;;5.28;3.83;;;17.70;99.90;;;;;;5036046;28;20048;-91
2023/09/28 01:38:34;;;;;;;4.70;4.30;;;17.70;99.90;;;;;;5075633;28;20404;-91
2023/09/28 01:41:00;;;;;;;5.07;4.18;;;17.70;99.90;;;;;;5082960;28;20729;-90
2023/09/28 01:43:25;;;;;;;4.68;3.83;;;17.60;99.90;;;;;;5039370;28;20040;-94
2023/09/28 01:45:51;;;;;;;6.18;3.80;;;17.60;99.90;;;;;;5055440;28;20106;-91
2023/09/28 01:48:17;;;;;;;4.68;3.80;;;17.60;99.90;;;;;;5041297;28;20106;-91
2023/09/28 01:50:43;;;;;;;6.00;3.60;;;17.60;99.90;;;;;;5044334;28;20032;-90
2023/09/28 01:53:08;;;;;;;5.45;3.40;;;17.60;99.90;;;;;;5042610;28;20043;-91
2023/09/28 01:55:35;;;;;;;3.85;3.45;;;17.60;99.90;;;;;;5032339;28;20045;-90
2023/09/28 01:58:02;;;;;;;4.18;3.28;;;17.60;99.90;;;;;;5058709;28;20094;-89
2023/09/28 02:00:28;;;;;;;3.97;3.47;;;17.60;99.90;;;;;;5025107;28;20116;-92
2023/09/28 02:02:56;;;;;;;5.22;3.50;;;17.60;99.90;;;;;;5069179;28;20128;-89
2023/09/28 02:05:22;;;;;;;5.78;3.33;;;17.60;99.90;;;;;;5049454;28;20044;-91
2023/09/28 02:07:49;;;;;;;5.32;2.92;;;17.60;99.90;;;;;;5060216;28;20613;-90
2023/09/28 02:10:15;;;;;;;4.15;3.15;;;17.60;99.90;;;;;;5039356;28;20111;-87
2023/09/28 02:12:43;;;;;;;3.75;3.10;;;17.70;99.90;;;;;;5054092;28;20481;-91
2023/09/28 02:15:10;;;;;;;6.80;3.20;;;17.70;99.90;;;;;;5062800;28;20037;-91
2023/09/28 02:17:36;;;;;;;4.30;3.20;;;17.70;99.90;;;;;;5038395;28;20050;-90
2023/09/28 02:20:09;;;;;;;4.53;3.30;;;17.70;99.90;;;;;;5037364;28;20052;-90
2023/09/28 02:22:43;;;;;;;3.55;3.00;;;17.70;99.90;;;;;;5024191;28;20131;-91
2023/09/28 02:25:20;;;;;;;6.10;3.22;;;17.60;99.90;;;;;;5089158;28;20083;-91
2023/09/28 02:27:50;;;;;;;6.40;3.28;;;17.60;99.90;;;;;;5033733;28;20039;-91
2023/09/28 02:30:19;;;;;;;3.35;2.70;;;17.60;99.90;;;;;;5047444;28;20087;-89
2023/09/28 02:32:46;;;;;;;4.35;2.60;;;17.60;99.90;;;;;;5034733;28;20069;-91
2023/09/28 02:35:14;;;;;;;6.10;2.92;;;17.60;99.90;;;;;;5030168;28;20040;-93
2023/09/28 02:37:41;;;;;;;3.95;2.78;;;17.60;99.90;;;;;;5043629;28;20048;-92
2023/09/28 02:40:09;;;;;;;4.50;2.88;;;17.60;99.90;;;;;;5060486;28;20040;-90
2023/09/28 02:42:35;;;;;;;3.40;3.10;;;17.60;99.90;;;;;;5033304;28;20056;-91
2023/09/28 02:45:01;;;;;;;3.38;3.08;;;17.50;99.90;;;;;;5037772;28;20044;-92
2023/09/28 02:47:27;;;;;;;6.25;3.47;;;17.50;99.90;;;;;;5071183;28;20074;-92
2023/09/28 02:49:53;;;;;;;4.55;3.25;;;17.50;99.90;;;;;;5036221;28;20043;-92
2023/09/28 02:52:18;;;;;;;3.63;2.88;;;17.50;99.90;;;;;;5055725;28;20127;-91
2023/09/28 02:54:46;;;;;;;3.65;3.15;;;17.50;99.90;;;;;;5056548;28;20048;-87
2023/09/28 02:57:12;;;;;;;5.10;3.10;;;17.50;99.90;;;;;;5034173;28;20087;-92
2023/09/28 02:59:38;;;;;;;3.63;3.10;;;17.50;99.90;;;;;;5056979;28;20495;-93
2023/09/28 03:02:05;;;;;;;4.97;3.20;;;17.50;99.90;;;;;;5040316;28;20028;-89
2023/09/28 03:04:34;;;;;;;3.05;2.70;;;17.50;99.90;;;;;;5107332;28;20051;-90
2023/09/28 03:07:00;;;;;;;4.50;3.35;;;17.50;99.90;;;;;;5048312;28;20039;-90
2023/09/28 03:09:27;;;;;;;4.55;3.20;;;17.40;99.90;;;;;;5041775;28;20028;-93
2023/09/28 03:11:54;;;;;;;3.60;2.97;;;17.40;99.90;;;;;;5043420;28;20145;-92
2023/09/28 03:14:20;;;;;;;4.00;3.30;;;17.40;99.90;;;;;;5038374;28;20434;-91
2023/09/28 03:16:46;;;;;;;3.33;3.03;;;17.40;99.90;;;;;;5026987;28;20039;-92
2023/09/28 03:19:12;;;;;;;4.97;3.53;;;17.40;99.90;;;;;;5041015;28;20044;-90
2023/09/28 03:21:39;;;;;;;5.88;3.33;;;17.40;99.90;;;;;;5065590;28;20071;-91
2023/09/28 03:24:08;;;;;;;4.88;3.58;;;17.30;99.90;;;;;;5039111;28;20047;-91
2023/09/28 03:26:33;;;;;;;5.53;3.30;;;17.30;99.90;;;;;;5072218;28;20093;-91
2023/09/28 03:28:59;;;;;;;3.90;3.50;;;17.30;99.90;;;;;;5027012;28;20036;-91
2023/09/28 03:31:29;;;;;;;4.55;3.45;;;17.30;99.90;;;;;;5053350;28;20094;-91
2023/09/28 03:33:55;;;;;;;3.75;3.25;;;17.30;99.90;;;;;;5025851;28;20479;-91
2023/09/28 03:36:24;;;;;;;4.43;3.65;;;17.20;99.90;;;;;;5041404;28;20131;-90
2023/09/28 03:38:50;;;;;;;6.00;3.85;;;17.20;99.90;;;;;;5058745;28;20071;-92
2023/09/28 03:41:17;;;;;;;5.50;3.55;;;17.40;99.90;;;;;;5064242;28;20087;-91
2023/09/28 03:43:44;;;;;;;4.35;3.60;;;16.90;99.90;;;;;;5066791;28;20479;-93
2023/09/28 03:46:11;;;;;;;4.93;3.50;;;17.10;99.90;;;;;;5071495;28;20044;-90
2023/09/28 03:48:37;;;;;;;4.82;3.63;;;17.10;99.90;;;;;;5048604;28;20581;-90
2023/09/28 03:51:03;;;;;;;4.63;3.55;;;17.10;99.90;;;;;;5065194;28;20074;-91
2023/09/28 03:53:32;;;;;;;4.93;3.38;;;16.80;99.90;;;;;;5047965;28;20071;-91
2023/09/28 03:55:58;;;;;;;5.93;3.63;;;17.30;99.90;;;;;;5057334;28;20048;-91
2023/09/28 03:58:24;;;;;;;4.53;3.67;;;17.50;99.90;;;;;;5065532;28;20047;-91
2023/09/28 04:00:50;;;;;;;5.72;4.07;;;;;;;;;;5070152;28;20048;-91
2023/09/28 04:03:16;;;;;;;6.45;3.85;;;16.90;99.90;;;;;;5079283;28;20071;-90
2023/09/28 04:05:42;;;;;;;4.88;3.70;;;17.40;99.90;;;;;;5072794;28;20636;-92
2023/09/28 04:08:08;;;;;;;5.05;3.97;;;17.00;99.90;;;;;;5064339;28;20119;-89
2023/09/28 04:10:33;;;;;;;4.30;3.90;;;16.90;99.90;;;;;;5074796;28;20079;-91
2023/09/28 04:13:01;;;;;;;4.35;3.70;;;17.40;99.90;;;;;;5062129;28;20040;-91
2023/09/28 04:15:27;;;;;;;5.68;3.75;;;17.00;99.90;;;;;;5074111;28;20047;-90
2023/09/28 04:17:53;;;;;;;4.55;3.85;;;16.80;99.90;;;;;;5061301;28;20044;-90
2023/09/28 04:20:19;;;;;;;4.47;3.55;;;17.30;99.90;;;;;;5091229;28;20627;-91
2023/09/28 04:22:45;;;;;;;6.18;4.10;;;17.10;99.90;;;;;;5047104;28;20043;-90
2023/09/28 04:25:11;;;;;;;6.75;4.05;;;17.20;99.90;;;;;;5054780;28;20039;-89
2023/09/28 04:27:37;;;;;;;6.32;3.90;;;17.30;99.90;;;;;;5067026;28;20036;-90
2023/09/28 04:30:06;;;;;;;6.60;4.00;;;17.10;99.90;;;;;;5088335;28;20399;-90
2023/09/28 04:32:32;;;;;;;4.97;4.47;;;17.00;99.90;;;;;;5063541;28;20127;-90
2023/09/28 04:34:58;;;;;;;7.35;4.18;;;16.80;99.90;;;;;;5034881;28;20080;-91
2023/09/28 04:37:26;;;;;;;5.13;4.00;;;16.80;99.90;;;;;;5063734;28;20085;-92
2023/09/28 04:39:53;;;;;;;5.53;4.18;;;17.00;99.90;;;;;;5034381;28;20035;-89
2023/09/28 04:42:20;;;;;;;5.93;3.95;;;16.90;99.90;;;;;;5063429;28;20044;-91
2023/09/28 04:44:46;;;;;;;4.97;4.10;;;16.80;99.90;;;;;;5050561;28;20471;-91
2023/09/28 04:47:12;;;;;;;7.50;4.53;;;16.90;99.90;;;;;;5061786;28;20149;-91
2023/09/28 04:49:41;;;;;;;6.32;4.10;;;16.90;99.90;;;;;;5056194;28;20040;-92
2023/09/28 04:52:10;;;;;;;7.05;4.70;;;16.90;99.90;;;;;;5047417;28;20036;-91
2023/09/28 04:54:36;;;;;;;6.00;4.30;;;16.80;99.90;;;;;;5039631;28;20052;-91
2023/09/28 04:57:02;;;;;;;7.18;4.43;;;16.60;99.90;;;;;;5059547;28;20043;-93
2023/09/28 04:59:28;;;;;;;6.45;4.32;;;;;;;;;;5077754;28;20805;-88
2023/09/28 05:01:54;;;;;;;6.70;4.22;;;16.50;99.90;;;;;;5060116;28;20076;-92
2023/09/28 05:04:20;;;;;;;6.57;4.47;;;16.60;99.90;;;;;;5040974;28;20534;-92
2023/09/28 05:06:46;;;;;;;5.43;4.55;;;16.60;99.90;;;;;;5039786;28;20042;-91
2023/09/28 05:09:13;;;;;;;6.85;4.55;;;16.60;99.90;;;;;;5048566;28;20040;-92
2023/09/28 05:11:39;;;;;;;5.32;4.07;;;16.50;99.90;;;;;;5050031;28;20036;-93
2023/09/28 05:14:05;;;;;;;6.80;4.63;;;16.50;99.90;;;;;;5045796;28;20095;-92
2023/09/28 05:16:31;;;;;;;7.22;4.78;;;16.20;99.90;;;;;;5050719;28;20037;-91
2023/09/28 05:18:57;;;;;;;6.32;4.63;;;16.50;99.90;;;;;;5055810;28;20078;-93
2023/09/28 05:21:24;;;;;;;6.88;4.63;;;16.40;99.90;;;;;;5048039;28;20036;-91
2023/09/28 05:23:50;;;;;;;5.25;4.22;;;16.40;99.90;;;;;;5061313;28;20455;-90
2023/09/28 05:27:00;;;;;;;5.00;4.18;;;16.40;99.90;;;;;;5060210;28;20040;-93
2023/09/28 05:29:39;;;;;;;7.70;4.57;;;16.40;99.90;;;;;;5058648;28;20094;-93
2023/09/28 05:32:06;;;;;;;6.13;4.70;;;16.40;99.90;;;;;;5034834;28;20044;-91
2023/09/28 05:34:32;;;;;;;6.13;4.18;;;16.30;99.90;;;;;;5057329;28;20114;-90
2023/09/28 05:36:58;;;;;;;6.88;4.30;;;16.30;99.90;;;;;;5041850;28;20044;-91
2023/09/28 05:39:24;;;;;;;5.32;3.63;;;16.30;99.90;;;;;;5043285;28;20043;-90
2023/09/28 05:41:50;;;;;;;5.75;3.58;;;16.30;99.90;;;;;;5047378;28;20369;-88
2023/09/28 05:44:15;;;;;;;7.80;3.30;;;16.30;99.90;;;;;;5080302;28;20036;-88
2023/09/28 05:46:41;;;;;;;6.88;3.85;;;16.30;99.90;;;;;;5026321;28;20040;-89
2023/09/28 05:49:07;;;;;;;7.65;3.38;;;16.30;99.90;;;;;;5042019;28;20151;-88
2023/09/28 05:51:33;;;;;;;6.63;3.13;;;16.30;99.90;;;;;;5025176;28;20028;-89
2023/09/28 05:53:58;;;;;;;9.27;3.10;;;16.30;99.90;;;;;;5062375;28;20059;-90
2023/09/28 05:56:24;;;;;;;7.10;2.70;;;16.30;99.90;;;;;;5091614;28;20032;-88
2023/09/28 05:58:50;;;;;;;4.90;2.60;;;16.30;99.90;;;;;;5061293;28;20048;-88
2023/09/28 06:01:21;;;;;;;7.88;2.85;;;16.40;99.90;;;;;;5078791;28;20428;-89
2023/09/28 06:03:46;;;;;;;6.55;2.90;;;16.40;99.90;;;;;;5071295;28;20047;-90
2023/09/28 06:06:17;;;;;;;7.70;2.72;;;16.40;99.90;;;;;;5047325;28;20036;-90
2023/09/28 06:08:44;;;;;;;6.63;2.60;;;16.40;99.90;;;;;;5058003;28;20430;-90
2023/09/28 06:11:12;;;;;;;5.85;2.92;;;16.40;99.90;;;;;;5057854;28;20044;-89
2023/09/28 06:13:42;;;;;;;7.70;3.22;;;16.40;99.90;;;;;;5052115;28;20139;-89
2023/09/28 06:16:10;;;;;;;5.70;3.22;;;16.50;99.90;;;;;;5042914;28;20115;-90
2023/09/28 06:18:36;;;;;;;4.78;2.95;;;16.60;99.90;;;;;;5057372;28;20040;-89
2023/09/28 06:21:02;;;;;;;4.88;3.47;;;16.70;99.90;;;;;;5052960;28;20039;-89
2023/09/28 06:23:28;;;;;;;6.88;3.80;;;16.70;99.90;;;;;;5072184;28;20044;-89
2023/09/28 06:25:54;;;;;;;8.13;4.40;;;16.70;99.90;;;;;;5073138;28;20077;-89
2023/09/28 06:28:23;;;;;;;5.68;3.70;;;16.80;99.90;;;;;;5039007;28;20040;-89
2023/09/28 06:30:51;;;;;;;5.22;3.97;;;16.90;99.90;;;;;;5064535;28;20055;-88
2023/09/28 06:33:17;;;;;;;6.63;4.07;;;17.00;99.90;;;;;;5074184;28;20139;-89
2023/09/28 06:35:43;;;;;;;6.28;3.55;;;17.00;99.90;;;;;;5059983;28;20036;-90
2023/09/28 06:38:10;;;;;;;6.30;3.75;;;17.00;99.90;;;;;;5063458;28;20452;-88
2023/09/28 06:40:36;;;;;;;7.57;3.67;;;;;;;;;;5041976;28;20044;-87
2023/09/28 06:43:02;;;;;;;5.65;3.35;;;17.60;99.90;;;;;;5070071;28;20479;-92
2023/09/28 06:45:27;;;;;;;6.15;3.15;;;17.40;99.90;;;;;;5026578;28;20094;-89
2023/09/28 06:47:54;;;;;;;9.70;3.33;;;17.20;99.90;;;;;;5033620;28;20089;-91
2023/09/28 06:50:21;;;;;;;9.30;3.55;;;17.00;99.90;;;;;;5031041;28;20568;-88
2023/09/28 06:52:47;;;;;;;10.75;3.28;;;17.40;99.90;;;;;;5042216;28;20071;-90
2023/09/28 06:55:13;;;;;;;9.05;2.60;;;17.40;99.90;;;;;;5028604;28;20087;-91
2023/09/28 06:57:39;;;;;;;7.75;2.47;;;16.80;99.90;;;;;;5054531;28;20058;-89
2023/09/28 07:00:09;;;;;;;9.95;2.60;;;17.60;99.90;;;;;;5025312;28;20036;-88
2023/09/28 07:02:35;;;;;;;10.65;2.63;;;17.70;99.90;;;;;;5038042;28;20044;-88
2023/09/28 07:05:03;;;;;;;6.97;2.30;;;17.80;99.90;;;;;;5040717;28;20466;-89
2023/09/28 07:07:30;;;;;;;9.45;2.28;;;17.80;99.90;;;;;;5005054;28;20086;-89
2023/09/28 07:09:56;;;;;;;;;;;17.90;99.90;;;;;;5054951;28;20436;-90
2023/09/28 07:12:22;;;;;;;8.82;2.00;;;18.00;99.90;;;;;;5038060;28;19962;-89
2023/09/28 07:14:48;;;;;;;8.02;2.22;;;18.10;99.90;;;;;;5054356;28;20513;-89
2023/09/28 07:17:14;;;;;;;11.20;2.63;;;18.30;99.90;;;;;;5036963;28;20040;-90
2023/09/28 07:19:40;;;;;;;10.13;2.22;;;18.30;99.90;;;;;;5020992;28;20040;-90
2023/09/28 07:22:06;;;;;;;8.53;2.30;;;18.40;99.90;;;;;;5029428;28;20047;-91
2023/09/28 07:24:33;;;;;;;9.45;2.50;;;18.60;99.90;;;;;;5055771;28;20044;-92
2023/09/28 07:26:59;;;;;;;;;;;18.70;99.90;;;;;;5037788;28;20040;-91
2023/09/28 07:29:25;;;;;;;11.50;2.53;;;18.80;99.90;;;;;;5023032;28;19926;-90
2023/09/28 07:31:51;;;;;;;10.68;2.83;;;18.90;99.90;;;;;;5040153;28;20044;-90
2023/09/28 07:34:16;;;;;;;8.57;2.50;;;19.00;99.90;;;;;;5011874;28;20040;-91
2023/09/28 07:36:45;;;;;;;12.20;3.03;;;;;;;;;;5062094;28;20044;-93
2023/09/28 07:39:11;;;;;;;11.75;2.83;;;19.20;99.90;;;;;;5077266;28;20397;-90
2023/09/28 07:41:38;;;;;;;15.40;2.97;;;19.40;99.90;;;;;;5032140;28;20048;-90
2023/09/28 07:44:04;;;;;;;10.82;3.10;;;19.50;99.90;;;;;;5018310;28;20033;-93
2023/09/28 07:46:30;;;;;;;14.48;3.65;;;19.60;99.90;;;;;;5016002;28;20101;-91
2023/09/28 07:48:56;;;;;;;15.00;3.60;;;19.70;99.90;;;;;;5047825;28;20036;-88
2023/09/28 07:51:22;;;;;;;11.07;3.00;;;19.90;99.90;;;;;;5008609;28;20037;-93
2023/09/28 07:53:48;;;;;;;13.82;3.38;;;20.00;99.90;;;;;;5029789;28;20059;-92
2023/09/28 07:56:13;;;;;;;15.45;3.47;;;20.10;99.90;;;;;;5056056;28;20491;-88
2023/09/28 07:58:39;;;;;;;12.05;3.45;;;;;;;;;;5048680;28;20487;-89
2023/09/28 08:01:05;;;;;;;14.23;3.53;;;20.40;99.90;;;;;;5037850;28;20044;-90
2023/09/28 08:03:31;;;;;;;15.95;3.45;;;20.70;99.90;;;;;;5051391;28;20479;-91
2023/09/28 08:05:57;;;;;;;12.40;2.83;;;21.00;99.90;;;;;;5054209;28;20099;-93
2023/09/28 08:08:23;;;;;;;8.77;2.50;;;21.30;99.90;;;;;;5040166;28;20164;-89
2023/09/28 08:10:49;;;;;;;10.23;2.40;;;;;;;;;;5048600;28;20123;-89
2023/09/28 08:13:15;;;;;;;13.95;3.33;;;;;;;;;;5056583;28;20067;-87
2023/09/28 08:15:44;;;;;;;9.18;2.47;;;22.30;99.90;;;;;;5040734;28;20047;-87
2023/09/28 08:18:10;;;;;;;7.40;2.47;;;22.20;99.90;;;;;;5064010;28;20055;-89
2023/09/28 08:20:36;;;;;;;11.48;2.70;;;21.80;99.90;;;;;;5057704;28;20039;-88
2023/09/28 08:23:04;;;;;;;10.32;2.47;;;21.40;99.90;;;;;;5052751;28;20056;-89
2023/09/28 08:25:30;;;;;;;7.50;2.15;;;21.10;99.90;;;;;;5036896;28;20036;-89
2023/09/28 08:27:56;;;;;;;8.90;2.22;;;20.80;99.90;;;;;;5048000;28;20040;-88
2023/09/28 08:30:22;;;;;;;9.60;2.55;;;20.70;99.90;;;;;;5058574;28;20173;-87
2023/09/28 08:32:47;;;;;;;10.65;2.70;;;20.60;99.90;;;;;;5060463;28;20036;-89
2023/09/28 08:35:13;;;;;;;13.65;2.78;;;20.60;99.90;;;;;;5060369;28;20036;-88
2023/09/28 08:37:39;;;;;;;10.85;2.50;;;20.60;99.90;;;;;;5054320;28;20127;-92
2023/09/28 08:40:06;;;;;;;9.95;2.22;;;20.50;99.90;;;;;;5074759;28;20055;-89
2023/09/28 08:42:33;;;;;;;10.80;3.13;;;20.70;99.90;;;;;;5041745;28;20093;-88
2023/09/28 08:45:01;;;;;;;8.93;2.55;;;20.70;99.90;;;;;;5060370;28;20047;-88
2023/09/28 08:47:38;;;;;;;10.98;2.15;;;20.70;99.90;;;;;;5076942;28;20047;-88
2023/09/28 08:50:05;;;;;;;12.88;2.60;;;20.60;99.90;;;;;;5049230;28;20123;-89
2023/09/28 08:52:31;;;;;;;;;;;20.40;99.90;;;;;;5039682;28;20126;-93
2023/09/28 08:54:59;;;;;;;11.20;2.28;;;20.30;99.90;;;;;;5046461;28;19920;-89
2023/09/28 08:57:27;;;;;;;11.32;2.20;;;20.20;99.90;;;;;;5070481;28;20052;-92
2023/09/28 08:59:53;;;;;;;11.55;3.00;;;20.10;99.90;;;;;;5044377;28;20036;-89
2023/09/28 09:02:19;;;;;;;8.80;2.40;;;20.00;99.90;;;;;;5043522;28;20035;-88
2023/09/28 09:04:45;;;;;;;9.25;2.38;;;20.00;99.90;;;;;;5038864;28;20813;-89
2023/09/28 09:07:11;;;;;;;11.73;2.42;;;20.00;99.90;;;;;;5022575;28;20039;-88
2023/09/28 09:09:40;;;;;;;10.48;2.55;;;20.00;99.90;;;;;;5038102;28;20124;-88
2023/09/28 09:12:09;;;;;;;8.27;2.30;;;20.10;99.90;;;;;;5060804;28;20499;-89
2023/09/28 09:14:35;;;;;;;9.73;2.72;;;20.10;99.90;;;;;;5065692;28;20044;-90
2023/09/28 09:17:02;;;;;;;11.77;2.85;;;20.20;99.90;;;;;;5071356;28;20123;-90
2023/09/28 09:19:32;;;;;;;11.15;2.60;;;20.20;99.90;;;;;;5044861;28;20035;-91
2023/09/28 09:21:58;;;;;;;9.10;2.47;;;20.30;99.90;;;;;;5040481;28;20041;-91
2023/09/28 09:24:24;;;;;;;14.93;3.42;;;20.40;99.90;;;;;;5049221;28;20140;-88
2023/09/28 09:26:53;;;;;;;13.50;2.50;;;20.40;99.90;;;;;;5061902;28;20098;-89
2023/09/28 09:29:19;;;;;;;11.85;3.08;;;20.40;99.90;;;;;;5084000;28;20498;-88
2023/09/28 09:31:54;;;;;;;10.48;2.45;;;20.30;99.90;;;;;;5045582;28;20047;-91
2023/09/28 09:34:21;;;;;;;9.57;2.50;;;20.30;99.90;;;;;;5017639;28;20123;-89
2023/09/28 09:36:51;;;;;;;8.35;2.20;;;20.30;99.90;;;;;;5039419;28;20047;-88
2023/09/28 09:39:30;;;;;;;9.05;2.60;;;20.20;99.90;;;;;;5056993;28;20035;-88
2023/09/28 09:41:57;;;;;;;10.15;2.58;;;20.10;99.90;;;;;;5075249;28;20048;-87
2023/09/28 09:44:25;;;;;;;7.18;1.98;;;20.10;99.90;;;;;;5081915;28;20726;-91
2023/09/28 09:46:52;;;;;;;;;;;20.00;99.90;;;;;;5058383;28;20062;-90
2023/09/28 09:49:19;;;;;;;10.70;2.23;;;19.90;99.90;;;;;;5076491;28;19927;-89
2023/09/28 09:51:48;;;;;;;8.45;1.80;;;19.90;99.90;;;;;;5054814;28;20459;-89
2023/09/28 09:54:16;;;;;;;11.50;2.25;;;19.90;99.90;;;;;;5061665;28;20052;-87
2023/09/28 09:56:49;;;;;;;8.75;1.73;;;19.90;99.90;;;;;;5051176;28;20032;-87
2023/09/28 09:59:16;;;;;;;12.25;2.90;;;19.90;99.90;;;;;;5058089;28;20475;-90
2023/09/28 10:01:47;;;;;;;8.20;2.53;;;19.90;99.90;;;;;;5050718;28;20060;-90
2023/09/28 10:04:18;;;;;;;13.35;3.00;;;19.90;99.90;;;;;;5042610;28;20051;-89
2023/09/28 10:06:52;;;;;;;13.25;3.67;;;19.90;99.90;;;;;;5070419;28;20391;-91
2023/09/28 10:09:20;;;;;;;14.52;3.70;;;19.80;99.90;;;;;;5066614;28;20671;-90
2023/09/28 10:11:48;;;;;;;14.40;3.53;;;19.80;99.90;;;;;;5058852;28;20078;-88
2023/09/28 10:14:21;;;;;;;13.88;3.42;;;19.70;99.90;;;;;;5055472;28;20041;-89
2023/09/28 10:16:55;;;;;;;16.73;3.45;;;19.70;99.90;;;;;;5084074;28;20032;-92
2023/09/28 10:19:24;;;;;;;14.45;3.28;;;19.60;99.90;;;;;;5038114;28;20036;-93
2023/09/28 10:21:52;;;;;;;15.32;3.65;;;19.60;99.90;;;;;;5035949;28;20036;-87
2023/09/28 10:24:19;;;;;;;11.65;3.00;;;19.70;99.90;;;;;;5107966;28;20097;-87
2023/09/28 10:26:50;;;;;;;;;;;19.70;99.90;;;;;;5056112;28;20283;-89
2023/09/28 10:29:20;;;;;;;13.32;3.10;;;19.80;99.90;;;;;;5089035;28;19920;-89
2023/09/28 10:31:46;;;;;;;12.82;3.78;;;19.90;99.90;;;;;;5057069;28;20032;-90
2023/09/28 10:34:19;;;;;;;10.17;3.13;;;19.90;99.90;;;;;;5059736;28;20040;-90
2023/09/28 10:37:05;;;;;;;12.30;2.97;;;19.90;99.90;;;;;;5062792;28;20454;-90
2023/09/28 10:39:31;;;;;;;13.20;2.92;;;19.80;99.90;;;;;;5092222;28;20044;-92
2023/09/28 10:42:16;;;;;;;11.20;2.60;;;19.70;99.90;;;;;;5045800;28;20036;-91
2023/09/28 10:44:50;;;;;;;9.70;2.42;;;19.70;99.90;;;;;;5092565;28;20032;-89
2023/09/28 10:47:16;;;;;;;13.55;2.70;;;19.70;99.90;;;;;;5040179;28;20041;-93
2023/09/28 10:49:43;;;;;;;12.43;2.35;;;19.60;99.90;;;;;;5088915;28;20058;-88
2023/09/28 10:52:10;;;;;;;10.65;2.70;;;19.60;99.90;;;;;;5058026;28;20039;-88
2023/09/28 10:54:36;;;;;;;14.10;2.75;;;19.60;99.90;;;;;;5057220;28;20056;-89
2023/09/28 10:57:05;;;;;;;11.35;2.55;;;19.60;99.90;;;;;;5043564;28;20394;-92
2023/09/28 10:59:31;;;;;;;13.20;2.90;;;19.60;99.90;;;;;;5074216;28;20123;-92
2023/09/28 11:01:56;;;;;;;10.45;2.75;;;19.60;99.90;;;;;;5021700;28;20132;-92
2023/09/28 11:04:22;;;;;;;12.20;2.45;;;19.60;99.90;;;;;;5074460;28;20532;-89
2023/09/28 11:06:49;;;;;;;7.65;2.58;;;19.60;99.90;;;;;;5057573;28;20040;-92
2023/09/28 11:09:16;;;;;;;7.97;2.37;;;19.50;99.90;;;;;;5074157;28;20127;-90
2023/09/28 11:11:41;;;;;;;;;;;19.50;99.90;;;;;;5058913;28;20569;-92
2023/09/28 11:14:07;;;;;;;9.95;2.22;;;19.50;99.90;;;;;;5069613;28;19916;-88
2023/09/28 11:16:38;;;;;;;9.07;2.40;;;19.50;99.90;;;;;;5041055;28;20040;-89
2023/09/28 11:19:05;;;;;;;9.43;2.30;;;19.50;99.90;;;;;;5071613;28;20085;-92
2023/09/28 11:21:31;;;;;;;10.02;2.33;;;19.50;99.90;;;;;;5058063;28;20040;-88
2023/09/28 11:23:57;;;;;;;10.00;2.45;;;19.60;99.90;;;;;;5036709;28;20040;-88
2023/09/28 11:26:24;;;;;;;9.75;2.63;;;19.50;99.90;;;;;;5040208;28;20032;-94
2023/09/28 11:28:51;;;;;;;10.43;2.63;;;19.50;99.90;;;;;;5041480;28;20073;-91
2023/09/28 11:31:17;;;;;;;10.98;2.58;;;19.50;99.90;;;;;;5058646;28;20031;-90
2023/09/28 11:33:47;;;;;;;12.20;2.55;;;19.50;99.90;;;;;;5040975;28;20101;-89
2023/09/28 11:36:16;;;;;;;12.82;2.40;;;19.50;99.90;;;;;;5040436;28;20510;-89
2023/09/28 11:38:42;;;;;;;11.65;2.40;;;19.60;99.90;;;;;;5056645;28;20390;-87
2023/09/28 11:41:08;;;;;;;12.52;3.55;;;19.60;99.90;;;;;;5055886;28;20484;-89
2023/09/28 11:43:47;;;;;;;14.60;2.88;;;19.50;99.90;;;;;;5042939;28;20032;-87
2023/09/28 11:46:22;;;;;;;8.00;2.17;;;19.50;99.90;;;;;;5050164;28;20094;-87
2023/09/28 11:49:02;;;;;;;12.40;2.90;;;19.50;99.90;;;;;;5070047;28;20044;-90
2023/09/28 11:51:30;;;;;;;11.77;2.80;;;19.50;99.90;;;;;;5054302;28;20047;-90
2023/09/28 11:53:57;;;;;;;10.68;2.65;;;19.40;99.90;;;;;;5036407;28;20070;-88
2023/09/28 11:56:23;;;;;;;13.43;2.72;;;19.40;99.90;;;;;;5039274;28;20048;-90
2023/09/28 11:58:49;;;;;;;8.27;2.50;;;19.40;99.90;;;;;;5035455;28;20043;-89
2023/09/28 12:01:14;;;;;;;13.00;2.97;;;19.40;99.90;;;;;;5037374;28;20047;-89
2023/09/28 12:03:40;;;;;;;11.25;2.92;;;19.40;99.90;;;;;;5039250;28;20578;-87
2023/09/28 12:06:06;;;;;;;10.38;2.50;;;19.40;99.90;;;;;;5039126;28;20455;-87
2023/09/28 12:08:32;;;;;;;9.77;2.38;;;19.40;99.90;;;;;;5043859;28;20035;-91
2023/09/28 12:10:57;;;;;;;9.10;2.65;;;19.50;99.90;;;;;;5051696;28;20279;-88
2023/09/28 12:13:24;;;;;;;10.98;2.67;;;19.50;99.90;;;;;;5058351;28;20044;-87
2023/09/28 12:15:50;;;;;;;;;;;19.60;99.90;;;;;;5079698;28;20047;-90
2023/09/28 12:18:16;;;;;;;9.00;2.67;;;19.70;99.90;;;;;;5092369;28;20003;-88
2023/09/28 12:20:42;;;;;;;12.27;3.03;;;19.70;99.90;;;;;;5056409;28;20047;-89
2023/09/28 12:23:08;;;;;;;12.27;2.47;;;19.80;99.90;;;;;;5027196;28;20076;-88
2023/09/28 12:25:34;;;;;;;11.27;2.95;;;19.80;99.90;;;;;;5044194;28;20109;-88
2023/09/28 12:28:00;;;;;;;10.65;2.15;;;19.80;99.90;;;;;;5043904;28;20039;-91
2023/09/28 12:30:26;;;;;;;13.90;2.58;;;19.90;99.90;;;;;;5051077;28;20028;-90
2023/09/28 12:32:53;;;;;;;13.98;2.80;;;19.90;99.90;;;;;;5060250;28;20040;-91
2023/09/28 12:35:19;;;;;;;10.98;2.30;;;19.80;99.90;;;;;;5042424;28;20036;-88
2023/09/28 12:37:45;;;;;;;12.05;2.22;;;19.70;99.90;;;;;;5050978;28;20044;-89
2023/09/28 12:40:12;;;;;;;8.20;2.45;;;19.60;99.90;;;;;;5059221;28;20031;-89
2023/09/28 12:42:39;;;;;;;13.75;2.85;;;19.50;99.90;;;;;;5059661;28;20055;-92
2023/09/28 12:45:06;;;;;;;11.70;2.45;;;19.50;99.90;;;;;;5045652;28;20517;-90
2023/09/28 12:47:32;;;;;;;11.50;2.53;;;19.50;99.90;;;;;;5039602;28;20412;-89
2023/09/28 12:49:59;;;;;;;9.35;2.53;;;19.40;99.90;;;;;;5060589;28;20047;-89